Time;durP1;ratioP1;P1;durP2;ratioP2;P2;SDS_P1;SDS_P2;PMS_P1;PMS_P2;Temp;Humidity;BMP_temperature;BMP_pressure;BME280_temperature;BME280_humidity;BME280_pressure;Samples;Min_cycle;Max_cycle;Signal;HPM_P1;HPM_P2
2021/11/03 00:00:03;;;;;;;14.30;7.50;;;;;;;4.99;100.00;100171.97;4997620;28;20041;-75
2021/11/03 00:02:28;;;;;;;13.93;8.23;;;;;;;4.99;100.00;100166.75;5021058;28;20055;-74
2021/11/03 00:04:55;;;;;;;14.70;7.82;;;;;;;4.97;100.00;100174.53;5013286;28;20504;-74
2021/11/03 00:07:20;;;;;;;12.75;8.18;;;;;;;4.96;100.00;100167.53;5014108;28;20030;-74
2021/11/03 00:09:45;;;;;;;13.82;9.48;;;;;;;4.93;100.00;100157.03;5018071;28;20067;-74
2021/11/03 00:12:12;;;;;;;17.25;10.43;;;;;;;4.95;100.00;100165.81;5014094;28;20144;-74
2021/11/03 00:14:39;;;;;;;20.15;9.57;;;;;;;4.94;100.00;100158.81;5014380;28;20513;-74
2021/11/03 00:17:05;;;;;;;14.73;8.50;;;;;;;4.89;100.00;100163.00;5013866;28;20370;-74
2021/11/03 00:19:30;;;;;;;15.35;9.27;;;;;;;4.90;100.00;100165.66;5013916;28;20029;-74
2021/11/03 00:21:56;;;;;;;14.25;9.02;;;;;;;4.86;100.00;100170.75;5015959;28;20463;-75
2021/11/03 00:24:21;;;;;;;15.40;9.18;;;;;;;4.79;100.00;100169.69;5010979;28;20112;-75
2021/11/03 00:26:46;;;;;;;20.95;10.55;;;;;;;4.81;100.00;100173.22;5013987;28;20053;-74
2021/11/03 00:29:11;;;;;;;12.88;9.23;;;;;;;4.78;100.00;100180.94;5014630;28;20033;-74
2021/11/03 00:31:37;;;;;;;15.02;9.30;;;;;;;4.77;100.00;100186.13;5016722;28;20092;-74
2021/11/03 00:34:02;;;;;;;16.27;11.30;;;;;;;4.70;100.00;100185.91;5013967;28;20029;-75
2021/11/03 00:36:28;;;;;;;15.15;10.10;;;;;;;4.62;100.00;100181.34;5017168;28;20025;-75
2021/11/03 00:38:53;;;;;;;16.50;10.95;;;;;;;4.53;100.00;100188.03;5008962;28;20049;-75
2021/11/03 00:41:19;;;;;;;20.90;12.43;;;;;;;4.50;100.00;100189.66;5024148;28;20017;-74
2021/11/03 00:43:44;;;;;;;21.00;12.57;;;;;;;4.47;100.00;100207.81;5008295;28;20057;-74
2021/11/03 00:46:09;;;;;;;19.63;12.93;;;;;;;4.49;100.00;100221.75;5008088;28;20088;-74
2021/11/03 00:48:35;;;;;;;22.65;14.45;;;;;;;4.50;100.00;100205.28;5015850;28;20030;-74
2021/11/03 00:51:00;;;;;;;25.52;15.93;;;;;;;4.52;100.00;100204.50;5004426;28;20026;-73
2021/11/03 00:53:27;;;;;;;31.90;17.08;;;;;;;4.56;100.00;100215.91;5007157;28;20079;-75
2021/11/03 00:55:52;;;;;;;32.67;17.17;;;;;;;4.58;100.00;100211.63;5015563;28;20478;-74
2021/11/03 00:58:18;;;;;;;31.02;17.63;;;;;;;4.61;100.00;100211.69;5004265;28;20081;-74
2021/11/03 01:00:44;;;;;;;29.02;18.33;;;;;;;4.65;100.00;100211.00;5017845;28;20033;-74
2021/11/03 01:03:09;;;;;;;28.83;17.77;;;;;;;4.71;100.00;100205.94;5014783;28;20585;-73
2021/11/03 01:05:38;;;;;;;28.40;17.95;;;;;;;4.78;100.00;100209.63;5016578;28;20022;-74
2021/11/03 01:08:08;;;;;;;29.77;18.75;;;;;;;4.82;100.00;100205.38;5017873;28;20049;-74
2021/11/03 01:10:36;;;;;;;28.95;16.48;;;;;;;4.86;100.00;100208.13;5031673;28;20046;-74
2021/11/03 01:13:02;;;;;;;30.08;18.23;;;;;;;4.89;100.00;100199.50;5028771;28;20033;-74
2021/11/03 01:15:27;;;;;;;31.63;17.35;;;;;;;4.91;100.00;100200.44;5019581;28;20045;-74
2021/11/03 01:17:55;;;;;;;26.25;17.90;;;;;;;4.95;100.00;100190.97;5017511;28;20080;-74
2021/11/03 01:20:21;;;;;;;21.67;15.18;;;;;;;4.98;100.00;100191.97;5016518;28;20026;-75
2021/11/03 01:22:46;;;;;;;24.02;16.40;;;;;;;5.00;100.00;100186.78;5020347;28;20038;-75
2021/11/03 01:25:15;;;;;;;25.45;16.38;;;;;;;5.01;100.00;100181.59;5023253;28;20386;-75
2021/11/03 01:27:41;;;;;;;26.98;15.93;;;;;;;5.04;100.00;100184.28;5019361;28;20037;-73
2021/11/03 01:30:09;;;;;;;26.75;16.15;;;;;;;5.08;100.00;100177.44;5034126;28;20397;-74
2021/11/03 01:32:35;;;;;;;22.48;14.93;;;;;;;5.08;100.00;100180.06;5022454;28;20501;-75
2021/11/03 01:35:00;;;;;;;24.95;15.23;;;;;;;5.06;100.00;100173.94;5020254;28;20018;-75
2021/11/03 01:37:26;;;;;;;30.10;16.38;;;;;;;5.06;100.00;100173.94;5016358;28;20029;-75
2021/11/03 01:39:51;;;;;;;26.83;16.70;;;;;;;5.09;100.00;100178.31;5020573;28;20030;-74
2021/11/03 01:42:18;;;;;;;24.67;15.65;;;;;;;5.11;100.00;100181.88;5016746;28;20104;-74
2021/11/03 01:44:43;;;;;;;26.23;16.05;;;;;;;5.08;100.00;100172.22;5016847;28;20034;-74
2021/11/03 01:47:45;;;;;;;26.13;15.88;;;;;;;5.09;100.00;100168.78;5019541;28;20505;-74
2021/11/03 01:50:12;;;;;;;24.38;14.95;;;;;;;5.09;100.00;100173.09;5009182;28;20429;-74
2021/11/03 01:52:40;;;;;;;25.67;15.38;;;;;;;5.09;100.00;100170.50;5022464;28;20030;-74
2021/11/03 01:55:11;;;;;;;25.45;15.15;;;;;;;5.09;100.00;100174.00;5026242;28;20048;-74
2021/11/03 01:57:41;;;;;;;24.85;15.88;;;;;;;5.09;100.00;100174.00;5016699;28;20119;-74
2021/11/03 02:00:14;;;;;;;25.33;15.88;;;;;;;5.10;100.00;100175.78;5008212;28;20731;-74
2021/11/03 02:02:42;;;;;;;29.25;15.95;;;;;;;5.11;100.00;100174.91;5010817;28;20099;-75
2021/11/03 02:05:11;;;;;;;24.42;15.65;;;;;;;5.17;100.00;100169.00;5013918;28;20022;-75
2021/11/03 02:07:38;;;;;;;25.05;16.55;;;;;;;5.20;100.00;100176.91;5018896;28;20116;-74
2021/11/03 02:10:05;;;;;;;27.17;16.70;;;;;;;5.22;100.00;100175.22;5026997;28;20537;-75
2021/11/03 02:12:31;;;;;;;23.70;16.08;;;;;;;5.26;100.00;100182.28;5024612;28;20041;-75
2021/11/03 02:14:57;;;;;;;25.25;15.68;;;;;;;5.28;100.00;100180.63;5015164;28;20457;-76
2021/11/03 02:17:24;;;;;;;25.42;15.60;;;;;;;5.32;100.00;100185.06;5015240;28;20033;-75
2021/11/03 02:19:51;;;;;;;26.25;17.27;;;;;;;5.31;100.00;100175.47;5010761;28;20018;-75
2021/11/03 02:22:33;;;;;;;26.75;17.08;;;;;;;5.34;100.00;100180.75;5010168;28;20104;-76
2021/11/03 02:25:22;;;;;;;24.63;16.15;;;;;;;5.36;100.00;100173.88;5016434;28;20026;-75
2021/11/03 02:27:50;;;;;;;26.52;17.60;;;;;;;5.38;100.00;100169.56;5015888;28;20050;-75
2021/11/03 02:30:21;;;;;;;27.98;17.33;;;;;;;5.38;100.00;100172.16;5016345;28;20032;-75
2021/11/03 02:32:53;;;;;;;30.75;17.58;;;;;;;5.40;100.00;100159.19;5015856;28;20396;-76
2021/11/03 02:35:18;;;;;;;33.70;19.48;;;;;;;5.43;100.00;100163.63;5019051;28;20025;-76
2021/11/03 02:37:51;;;;;;;30.77;18.95;;;;;;;5.47;100.00;100166.34;5024451;28;20569;-76
2021/11/03 02:40:32;;;;;;;33.65;20.60;;;;;;;5.48;100.00;100161.97;5021210;28;20053;-76
2021/11/03 02:43:04;;;;;;;34.05;19.23;;;;;;;5.49;100.00;100158.53;5030813;28;20105;-76
2021/11/03 02:45:39;;;;;;;38.55;23.48;;;;;;;5.51;100.00;100162.09;5016341;28;20068;-76
2021/11/03 02:48:04;;;;;;;37.45;21.95;;;;;;;5.53;100.00;100155.16;5014360;28;20417;-76
2021/11/03 02:50:30;;;;;;;35.58;23.55;;;;;;;5.54;100.00;100157.81;5029321;28;20026;-75
2021/11/03 02:52:55;;;;;;;37.78;24.75;;;;;;;5.56;100.00;100147.41;5021869;28;20057;-75
2021/11/03 02:55:20;;;;;;;40.30;26.52;;;;;;;5.56;100.00;100144.78;5018295;28;20021;-75
2021/11/03 02:57:46;;;;;;;43.25;27.42;;;;;;;5.54;100.00;100136.06;5015013;28;20108;-75
2021/11/03 03:00:17;;;;;;;40.42;27.38;;;;;;;5.54;100.00;100141.28;5004851;28;20065;-75
2021/11/03 03:02:43;;;;;;;43.40;27.48;;;;;;;5.54;100.00;100136.94;5014298;28;20077;-75
2021/11/03 03:05:08;;;;;;;44.72;29.70;;;;;;;5.53;100.00;100135.16;5015534;28;20457;-75
2021/11/03 03:07:34;;;;;;;46.50;30.48;;;;;;;5.52;100.00;100130.81;5025960;28;20037;-75
2021/11/03 03:09:59;;;;;;;46.00;29.90;;;;;;;5.51;100.00;100130.78;5026130;28;20037;-75
2021/11/03 03:12:27;;;;;;;44.90;29.65;;;;;;;5.48;100.00;100128.06;5013649;28;20037;-75
2021/11/03 03:14:53;;;;;;;41.17;27.25;;;;;;;5.46;100.00;100129.75;5023418;28;20390;-75
2021/11/03 03:17:20;;;;;;;40.95;24.90;;;;;;;5.42;100.00;100115.75;5015756;28;20034;-75
2021/11/03 03:19:45;;;;;;;35.70;21.65;;;;;;;5.42;100.00;100120.09;5014131;28;20029;-75
2021/11/03 03:22:12;;;;;;;33.80;21.92;;;;;;;5.40;100.00;100117.44;5010507;28;20390;-75
2021/11/03 03:24:38;;;;;;;32.55;21.85;;;;;;;5.35;100.00;100119.06;5013386;28;20046;-75
2021/11/03 03:27:04;;;;;;;34.90;21.33;;;;;;;5.30;100.00;100115.44;5013545;28;20045;-75
2021/11/03 03:29:29;;;;;;;33.78;20.48;;;;;;;5.19;100.00;100113.41;5020954;28;20112;-74
2021/11/03 03:31:55;;;;;;;30.83;19.50;;;;;;;5.11;100.00;100106.25;5018823;28;20033;-74
2021/11/03 03:34:23;;;;;;;37.55;22.95;;;;;;;5.09;100.00;100116.63;5014437;28;20115;-74
2021/11/03 03:36:50;;;;;;;34.50;22.20;;;;;;;5.05;100.00;100120.00;5008244;28;20041;-75
2021/11/03 03:39:18;;;;;;;38.33;21.67;;;;;;;4.99;100.00;100125.03;5015138;28;20022;-74
2021/11/03 03:41:49;;;;;;;33.38;21.25;;;;;;;4.96;100.00;100119.75;5014338;28;20034;-75
2021/11/03 03:44:14;;;;;;;33.00;20.60;;;;;;;4.84;100.00;100125.50;5013198;28;20551;-74
2021/11/03 03:46:39;;;;;;;32.80;20.63;;;;;;;4.80;100.00;100123.66;5012654;28;20026;-75
2021/11/03 03:49:05;;;;;;;36.30;21.98;;;;;;;4.74;100.00;100132.19;5020254;28;20029;-74
2021/11/03 03:51:31;;;;;;;35.80;19.88;;;;;;;4.66;100.00;100129.34;5028895;28;20442;-75
2021/11/03 03:53:56;;;;;;;31.30;20.75;;;;;;;4.60;100.00;100130.88;5013872;28;20386;-75
2021/11/03 03:56:23;;;;;;;34.38;22.23;;;;;;;4.56;100.00;100136.00;5012644;28;20022;-74
2021/11/03 03:58:50;;;;;;;38.60;23.55;;;;;;;4.52;100.00;100138.50;5030445;28;20474;-75
2021/11/03 04:01:19;;;;;;;49.83;25.38;;;;;;;4.54;100.00;100139.41;5012410;28;20048;-75
2021/11/03 04:03:45;;;;;;;44.35;26.17;;;;;;;4.57;100.00;100144.69;5012298;28;20057;-74
2021/11/03 04:06:11;;;;;;;31.42;20.85;;;;;;;4.44;100.00;100147.81;5013227;28;20367;-75
2021/11/03 04:08:36;;;;;;;30.70;20.67;;;;;;;4.37;100.00;100150.22;5014372;28;20490;-75
2021/11/03 04:11:02;;;;;;;32.40;20.52;;;;;;;4.28;100.00;100152.53;5013236;28;20029;-75
2021/11/03 04:13:28;;;;;;;34.50;20.95;;;;;;;4.25;100.00;100155.06;5013192;28;20036;-74
2021/11/03 04:15:54;;;;;;;27.35;19.50;;;;;;;4.22;100.00;100161.03;5016394;28;20029;-75
2021/11/03 04:18:20;;;;;;;39.38;22.52;;;;;;;4.29;100.00;100163.84;5017628;28;20032;-75
2021/11/03 04:20:45;;;;;;;27.30;18.88;;;;;;;4.20;100.00;100167.03;5015777;28;20469;-75
2021/11/03 04:23:11;;;;;;;33.53;20.13;;;;;;;4.12;100.00;100168.53;5015316;28;20041;-74
2021/11/03 04:25:37;;;;;;;37.58;20.92;;;;;;;4.18;100.00;100177.41;5008644;28;20026;-75
2021/11/03 04:28:03;;;;;;;32.78;19.83;;;;;;;4.11;100.00;100180.66;5012775;28;20394;-74
2021/11/03 04:30:29;;;;;;;36.97;22.60;;;;;;;4.12;100.00;100184.13;5017401;28;20061;-74
2021/11/03 04:32:54;;;;;;;37.97;22.55;;;;;;;4.14;100.00;100182.47;5011838;28;20115;-74
2021/11/03 04:35:19;;;;;;;38.75;23.88;;;;;;;4.14;100.00;100183.34;5009557;28;20034;-74
2021/11/03 04:37:45;;;;;;;39.28;22.60;;;;;;;4.17;100.00;100190.38;5012556;28;20026;-74
2021/11/03 04:40:15;;;;;;;42.30;23.73;;;;;;;4.25;100.00;100190.63;5013906;28;20034;-73
2021/11/03 04:42:40;;;;;;;34.88;22.00;;;;;;;4.26;100.00;100188.06;5013658;28;20117;-74
2021/11/03 04:45:07;;;;;;;34.60;18.45;;;;;;;4.19;100.00;100188.69;5014717;28;20381;-74
2021/11/03 04:47:33;;;;;;;34.17;20.92;;;;;;;4.21;100.00;100194.84;5013087;28;20107;-74
2021/11/03 04:49:59;;;;;;;41.13;21.10;;;;;;;4.23;100.00;100193.16;5018925;28;20120;-75
2021/11/03 04:52:25;;;;;;;35.22;19.90;;;;;;;4.22;100.00;100194.03;5013145;28;20038;-74
2021/11/03 04:54:51;;;;;;;31.92;18.90;;;;;;;4.22;100.00;100199.22;5032829;28;20037;-74
2021/11/03 04:57:18;;;;;;;31.20;19.13;;;;;;;4.21;100.00;100200.06;5013104;28;20382;-75
2021/11/03 04:59:45;;;;;;;33.90;19.33;;;;;;;4.20;100.00;100200.88;5013166;28;20026;-74
2021/11/03 05:02:11;;;;;;;29.15;18.55;;;;;;;4.18;100.00;100199.97;5028075;28;20065;-75
2021/11/03 05:04:36;;;;;;;34.60;19.70;;;;;;;4.16;100.00;100201.63;5012935;28;20025;-75
2021/11/03 05:07:02;;;;;;;34.25;19.63;;;;;;;4.14;100.00;100198.09;5013549;28;20029;-75
2021/11/03 05:09:28;;;;;;;37.03;19.52;;;;;;;4.16;100.00;100201.63;5013457;28;20041;-75
2021/11/03 05:11:53;;;;;;;33.88;20.08;;;;;;;4.15;100.00;100205.97;5013858;28;20022;-74
2021/11/03 05:14:18;;;;;;;34.33;18.77;;;;;;;4.11;100.00;100209.31;5015622;28;20041;-74
2021/11/03 05:16:44;;;;;;;31.63;18.00;;;;;;;4.09;100.00;100207.47;5032537;28;20036;-75
2021/11/03 05:19:19;;;;;;;28.52;17.60;;;;;;;4.06;100.00;100213.47;5014307;28;20100;-74
2021/11/03 05:21:45;;;;;;;31.48;19.02;;;;;;;4.02;100.00;100212.47;5011942;28;20037;-75
2021/11/03 05:24:11;;;;;;;29.75;18.38;;;;;;;4.00;100.00;100208.94;5012858;28;20048;-75
2021/11/03 05:26:36;;;;;;;34.35;19.85;;;;;;;3.98;100.00;100208.00;5012903;28;20117;-74
2021/11/03 05:29:03;;;;;;;39.55;21.73;;;;;;;3.95;100.00;100202.72;5012591;28;20033;-75
2021/11/03 05:31:28;;;;;;;36.47;21.05;;;;;;;3.92;100.00;100202.63;5015008;28;20030;-75
2021/11/03 05:33:54;;;;;;;34.45;20.25;;;;;;;3.88;100.00;100206.81;5017921;28;20041;-74
2021/11/03 05:36:25;;;;;;;33.63;19.45;;;;;;;3.86;100.00;100207.59;5027076;28;20029;-75
2021/11/03 05:38:51;;;;;;;29.50;18.35;;;;;;;3.83;100.00;100208.38;5016015;28;20030;-75
2021/11/03 05:41:17;;;;;;;29.60;18.48;;;;;;;3.78;100.00;100212.53;5016649;28;20386;-75
2021/11/03 05:43:43;;;;;;;30.27;17.58;;;;;;;3.69;100.00;100212.22;5011198;28;20033;-74
2021/11/03 05:46:15;;;;;;;29.35;18.05;;;;;;;3.64;100.00;100216.41;5014997;28;20529;-74
2021/11/03 05:48:43;;;;;;;33.60;19.05;;;;;;;3.60;100.00;100210.19;5016800;28;20053;-73
2021/11/03 05:51:09;;;;;;;41.78;22.60;;;;;;;3.68;100.00;100213.94;5035986;28;20035;-74
2021/11/03 05:53:37;;;;;;;30.23;17.90;;;;;;;3.58;100.00;100218.78;5017734;28;20117;-74
2021/11/03 05:56:04;;;;;;;31.45;19.42;;;;;;;3.52;100.00;100219.47;5017955;28;20033;-73
2021/11/03 05:58:31;;;;;;;31.00;19.35;;;;;;;3.55;100.00;100216.97;5016114;28;20033;-74
2021/11/03 06:00:57;;;;;;;37.25;20.55;;;;;;;3.57;100.00;100220.50;5010383;28;20033;-74
2021/11/03 06:03:22;;;;;;;39.13;21.17;;;;;;;3.50;100.00;100213.31;5018517;28;20025;-74
2021/11/03 06:05:47;;;;;;;37.00;20.10;;;;;;;3.51;100.00;100215.09;5016828;28;20104;-74
2021/11/03 06:08:13;;;;;;;34.72;20.63;;;;;;;3.57;100.00;100210.09;5020027;28;20060;-74
2021/11/03 06:10:41;;;;;;;42.03;22.25;;;;;;;3.60;100.00;100215.41;5018321;28;20038;-74
2021/11/03 06:13:08;;;;;;;30.65;19.60;;;;;;;3.49;100.00;100211.56;5015439;28;20040;-74
2021/11/03 06:15:35;;;;;;;27.95;16.83;;;;;;;3.35;100.00;100211.97;5015283;28;20030;-74
2021/11/03 06:18:01;;;;;;;31.33;17.25;;;;;;;3.29;100.00;100209.13;5015857;28;20033;-74
2021/11/03 06:20:27;;;;;;;33.38;18.20;;;;;;;3.26;100.00;100219.44;5015826;28;20024;-73
2021/11/03 06:22:53;;;;;;;31.63;19.55;;;;;;;3.27;100.00;100216.00;5013886;28;20033;-75
2021/11/03 06:25:19;;;;;;;34.28;20.35;;;;;;;3.29;100.00;100219.53;5013937;28;20415;-74
2021/11/03 06:27:46;;;;;;;34.88;20.95;;;;;;;3.26;100.00;100219.44;5012703;28;20505;-72
2021/11/03 06:30:16;;;;;;;32.67;19.92;;;;;;;3.25;100.00;100222.84;5015417;28;20085;-76
2021/11/03 06:32:42;;;;;;;32.95;18.60;;;;;;;3.22;100.00;100227.06;5015338;28;20521;-76
2021/11/03 06:35:09;;;;;;;34.30;20.17;;;;;;;3.18;100.00;100220.88;5013447;28;20025;-75
2021/11/03 06:37:34;;;;;;;32.83;20.02;;;;;;;3.16;100.00;100227.72;5016833;28;20030;-74
2021/11/03 06:40:00;;;;;;;32.65;20.50;;;;;;;3.19;100.00;100227.84;5014949;28;20337;-73
2021/11/03 06:42:25;;;;;;;25.98;17.00;;;;;;;3.04;100.00;100221.25;5013531;28;20490;-73
2021/11/03 06:44:51;;;;;;;32.22;18.50;;;;;;;3.00;100.00;100211.56;5014515;28;20108;-71
2021/11/03 06:47:19;;;;;;;37.95;21.15;;;;;;;3.15;100.00;100220.75;5018819;28;20025;-73
2021/11/03 06:49:45;;;;;;;31.35;18.42;;;;;;;3.10;100.00;100227.50;5014138;28;20390;-74
2021/11/03 06:52:10;;;;;;;30.75;19.17;;;;;;;3.01;100.00;100220.22;5014071;28;20036;-73
2021/11/03 06:54:36;;;;;;;28.85;17.73;;;;;;;2.94;100.00;100220.84;5022763;28;20059;-73
2021/11/03 06:57:03;;;;;;;37.33;19.08;;;;;;;2.93;100.00;100225.16;5014092;28;20032;-73
2021/11/03 06:59:28;;;;;;;28.38;18.67;;;;;;;2.91;100.00;100216.41;5013825;28;20028;-73
2021/11/03 07:01:53;;;;;;;33.33;18.75;;;;;;;2.95;100.00;100222.63;5013566;28;20033;-73
2021/11/03 07:04:19;;;;;;;28.52;18.38;;;;;;;2.94;100.00;100221.72;5016365;28;20104;-74
2021/11/03 07:06:44;;;;;;;35.10;19.38;;;;;;;2.91;100.00;100218.13;5014071;28;20042;-75
2021/11/03 07:09:10;;;;;;;30.92;19.00;;;;;;;2.92;100.00;100218.19;5012905;28;20496;-74
2021/11/03 07:11:35;;;;;;;36.45;20.13;;;;;;;2.91;100.00;100215.53;5006464;28;20486;-74
2021/11/03 07:14:00;;;;;;;38.67;18.70;;;;;;;2.90;100.00;100204.25;5013240;28;20466;-75
2021/11/03 07:16:27;;;;;;;34.53;20.20;;;;;;;2.99;100.00;100214.97;5012481;28;20028;-74
2021/11/03 07:18:53;;;;;;;38.17;19.38;;;;;;;2.97;100.00;100216.66;5012947;28;20050;-74
2021/11/03 07:21:19;;;;;;;36.03;18.65;;;;;;;2.95;100.00;100215.69;5013133;28;20037;-75
2021/11/03 07:23:44;;;;;;;29.38;18.40;;;;;;;2.97;100.00;100226.16;5014671;28;20441;-75
2021/11/03 07:26:11;;;;;;;34.30;19.98;;;;;;;2.94;100.00;100221.72;5013851;28;20033;-74
2021/11/03 07:28:36;;;;;;;34.45;19.80;;;;;;;2.95;100.00;100227.81;5013413;28;20042;-74
2021/11/03 07:31:04;;;;;;;35.00;19.85;;;;;;;2.92;100.00;100233.78;5013450;28;20497;-74
2021/11/03 07:33:29;;;;;;;33.33;16.98;;;;;;;2.92;100.00;100233.78;5014352;28;20080;-71
2021/11/03 07:35:54;;;;;;;28.70;18.98;;;;;;;2.98;100.00;100243.50;5012771;28;20026;-73
2021/11/03 07:38:21;;;;;;;31.77;20.23;;;;;;;3.02;100.00;100238.47;5014339;28;20025;-74
2021/11/03 07:40:50;;;;;;;26.77;18.67;;;;;;;3.03;100.00;100240.25;5014638;28;20501;-73
2021/11/03 07:43:19;;;;;;;32.45;18.30;;;;;;;3.06;100.00;100242.09;4999570;28;20026;-74
2021/11/03 07:45:47;;;;;;;26.85;18.92;;;;;;;3.07;100.00;100243.00;4999105;28;20030;-74
2021/11/03 07:48:13;;;;;;;49.45;19.45;;;;;;;3.10;100.00;100243.09;5012592;28;20378;-74
2021/11/03 07:50:42;;;;;;;46.97;19.23;;;;;;;3.11;100.00;100244.88;5014254;28;20034;-74
2021/11/03 07:53:09;;;;;;;54.15;18.33;;;;;;;3.17;100.00;100250.28;5017896;28;20024;-73
2021/11/03 07:55:35;;;;;;;49.83;19.42;;;;;;;3.16;100.00;100257.22;5024914;28;20046;-74
2021/11/03 07:58:01;;;;;;;31.63;21.77;;;;;;;3.25;100.00;100250.56;5010439;28;20018;-73
2021/11/03 08:00:29;;;;;;;31.13;18.55;;;;;;;3.26;100.00;100250.63;5014147;28;20068;-74
2021/11/03 08:02:55;;;;;;;35.15;21.42;;;;;;;3.29;100.00;100250.72;5012583;28;20061;-74
2021/11/03 08:05:22;;;;;;;31.25;21.60;;;;;;;3.34;100.00;100249.19;5014620;28;20052;-73
2021/11/03 08:07:48;;;;;;;29.98;20.27;;;;;;;3.37;100.00;100254.50;5012125;28;20026;-74
2021/11/03 08:10:15;;;;;;;30.92;21.27;;;;;;;3.40;100.00;100251.13;5012284;28;20049;-74
2021/11/03 08:12:42;;;;;;;33.08;23.40;;;;;;;3.51;100.00;100267.09;5014911;28;20517;-74
2021/11/03 08:15:10;;;;;;;29.83;20.73;;;;;;;3.52;100.00;100263.69;5014456;28;20036;-74
2021/11/03 08:17:37;;;;;;;26.45;19.38;;;;;;;3.55;100.00;100274.19;5013869;28;20088;-74
2021/11/03 08:20:05;;;;;;;25.25;18.88;;;;;;;3.53;100.00;100266.34;5014536;28;20485;-75
2021/11/03 08:22:32;;;;;;;26.80;19.02;;;;;;;3.50;100.00;100271.44;5014262;28;20085;-74
2021/11/03 08:24:58;;;;;;;29.77;20.50;;;;;;;3.56;100.00;100270.75;5014637;28;20029;-75
2021/11/03 08:27:24;;;;;;;28.15;20.00;;;;;;;3.57;100.00;100267.34;5014094;28;20049;-75
2021/11/03 08:29:51;;;;;;;34.95;22.08;;;;;;;3.63;100.00;100277.94;5014395;28;20486;-74
2021/11/03 08:32:20;;;;;;;30.20;22.88;;;;;;;3.70;100.00;100284.25;5014644;28;20030;-73
2021/11/03 08:34:47;;;;;;;32.78;23.60;;;;;;;3.77;100.00;100280.16;5014243;28;20053;-74
2021/11/03 08:37:19;;;;;;;34.40;23.67;;;;;;;3.80;100.00;100280.25;5014038;28;20488;-73
2021/11/03 08:39:49;;;;;;;38.20;23.98;;;;;;;3.85;100.00;100290.00;5013819;28;20382;-73
2021/11/03 08:42:15;;;;;;;33.53;24.17;;;;;;;3.89;100.00;100290.97;5029119;28;20128;-73
2021/11/03 08:44:40;;;;;;;32.80;22.05;;;;;;;3.89;100.00;100290.97;5014076;28;20363;-74
2021/11/03 08:47:08;;;;;;;33.38;23.67;;;;;;;3.93;100.00;100290.25;5013824;28;20053;-74
2021/11/03 08:49:35;;;;;;;33.33;22.85;;;;;;;4.03;100.00;100291.47;5014292;28;20030;-73
2021/11/03 08:52:01;;;;;;;34.53;23.65;;;;;;;4.07;100.00;100290.75;5014234;28;20053;-74
2021/11/03 08:54:26;;;;;;;30.95;22.20;;;;;;;4.12;100.00;100285.69;5031206;28;20124;-74
2021/11/03 08:56:52;;;;;;;38.40;26.50;;;;;;;4.28;100.00;100290.56;5013774;28;20056;-74
2021/11/03 08:59:17;;;;;;;41.42;27.13;;;;;;;4.56;100.00;100297.56;5012517;28;20478;-74
2021/11/03 09:01:44;;;;;;;36.15;25.95;;;;;;;4.84;100.00;100298.44;5012250;28;20099;-74
2021/11/03 09:04:10;;;;;;;33.83;24.90;;;;;;;5.23;100.00;100292.63;5013574;28;20021;-74
2021/11/03 09:06:37;;;;;;;33.78;25.67;;;;;;;5.71;100.00;100296.59;5015917;28;20081;-74
2021/11/03 09:09:04;;;;;;;31.02;19.60;;;;;;;6.08;100.00;100294.13;5016453;28;20042;-74
2021/11/03 09:11:29;;;;;;;30.45;18.33;;;;;;;6.22;100.00;100281.41;5033696;28;20393;-74
2021/11/03 09:13:55;;;;;;;24.35;18.42;;;;;;;6.20;100.00;100283.97;5015599;28;20026;-73
2021/11/03 09:16:21;;;;;;;24.73;19.27;;;;;;;6.21;100.00;100287.47;5017001;28;20104;-73
2021/11/03 09:18:47;;;;;;;26.27;19.33;;;;;;;6.30;100.00;100287.69;5018154;28;20536;-73
2021/11/03 09:21:13;;;;;;;28.10;20.70;;;;;;;6.57;100.00;100292.72;5017160;28;20052;-74
2021/11/03 09:23:38;;;;;;;24.20;19.13;;;;;;;6.71;100.00;100295.66;5017262;28;20431;-73
2021/11/03 09:26:04;;;;;;;27.40;18.92;;;;;;;6.77;100.00;100294.94;5017622;28;20034;-74
2021/11/03 09:28:32;;;;;;;24.15;18.55;;;;;;;6.78;100.00;100294.06;5016577;28;20081;-74
2021/11/03 09:30:59;;;;;;;25.13;18.80;;;;;;;6.89;100.00;100297.81;5017447;28;20037;-75
2021/11/03 09:33:25;;;;;;;29.08;19.90;;;;;;;7.18;100.00;100294.09;5014915;28;20109;-74
2021/11/03 09:35:52;;;;;;;24.98;18.02;;;;;;;7.39;100.00;100298.88;5016419;28;20030;-75
2021/11/03 09:38:22;;;;;;;25.48;17.95;;;;;;;7.40;100.00;100293.66;5016805;28;20029;-75
2021/11/03 09:40:53;;;;;;;24.60;18.45;;;;;;;7.39;100.00;100296.25;5016926;28;20076;-71
2021/11/03 09:43:38;;;;;;;25.02;18.45;;;;;;;7.29;100.00;100300.41;5014716;28;20401;-72
2021/11/03 09:46:21;;;;;;;25.52;19.05;;;;;;;7.18;100.00;100299.31;5016380;28;20508;-75
2021/11/03 09:48:52;;;;;;;27.63;19.70;;;;;;;7.17;100.00;100305.41;5015311;28;20025;-75
2021/11/03 09:51:21;;;;;;;26.73;19.27;;;;;;;7.26;100.00;100309.09;5016474;28;20020;-73
2021/11/03 09:53:51;;;;;;;31.52;21.63;;;;;;;7.55;100.00;100307.94;5019594;28;20064;-74
2021/11/03 09:56:21;;;;;;;26.00;19.58;;;;;;;7.80;100.00;100304.06;5016288;28;20477;-73
2021/11/03 09:59:13;;;;;;;27.45;21.42;;;;;;;8.28;100.00;100303.16;5016475;28;20481;-73
2021/11/03 10:01:46;;;;;;;36.22;22.52;;;;;;;8.75;100.00;100307.47;5031395;28;20038;-75
2021/11/03 10:04:42;;;;;;;25.73;18.23;;;;;;;8.93;97.90;100301.59;5015457;28;20029;-74
2021/11/03 10:07:40;;;;;;;28.42;20.27;;;;;;;9.21;98.76;100299.38;5016525;28;20042;-73
2021/11/03 10:10:20;;;;;;;28.77;20.08;;;;;;;9.49;97.52;100296.22;5016315;28;20076;-74
2021/11/03 10:12:47;;;;;;;29.67;18.08;;;;;;;9.75;94.80;100301.75;5017033;28;20183;-74
2021/11/03 10:15:17;;;;;;;24.02;18.05;;;;;;;9.89;92.82;100296.63;5031385;28;20501;-74
2021/11/03 10:17:43;;;;;;;29.50;18.73;;;;;;;9.81;92.90;100300.94;5016212;28;20061;-75
2021/11/03 10:20:28;;;;;;;25.40;19.48;;;;;;;9.56;92.92;100300.66;5015576;28;20026;-75
2021/11/03 10:23:06;;;;;;;27.40;20.67;;;;;;;9.40;94.84;100303.13;5027321;28;20029;-75
2021/11/03 10:25:32;;;;;;;25.55;18.23;;;;;;;9.36;95.34;100314.44;5016863;28;20497;-75
2021/11/03 10:28:00;;;;;;;23.75;19.00;;;;;;;9.30;95.16;100314.34;5016590;28;20050;-75
2021/11/03 10:30:37;;;;;;;22.80;19.00;;;;;;;9.21;96.01;100311.59;5017069;28;20073;-75
2021/11/03 10:33:17;;;;;;;27.83;20.77;;;;;;;9.07;97.37;100314.91;5016878;28;20050;-75
2021/11/03 10:35:54;;;;;;;28.50;22.70;;;;;;;9.27;100.00;100324.81;5015658;28;20490;-75
2021/11/03 10:38:22;;;;;;;24.98;20.30;;;;;;;9.50;100.00;100316.38;5016859;28;20401;-75
2021/11/03 10:41:02;;;;;;;28.52;19.90;;;;;;;9.52;99.15;100312.00;5015625;28;20105;-75
2021/11/03 10:43:42;;;;;;;29.67;20.52;;;;;;;9.51;98.92;100313.75;5015248;28;20033;-75
2021/11/03 10:46:20;;;;;;;24.52;20.63;;;;;;;9.57;99.23;100305.94;5016506;28;20033;-74
2021/11/03 10:48:47;;;;;;;27.85;19.77;;;;;;;9.69;98.27;100310.44;5017318;28;20112;-76
2021/11/03 10:51:19;;;;;;;22.83;18.25;;;;;;;9.91;95.27;100297.56;5028845;28;20431;-75
2021/11/03 10:54:02;;;;;;;23.52;18.80;;;;;;;10.08;95.95;100303.88;5026477;28;20080;-74
2021/11/03 10:56:32;;;;;;;23.58;18.25;;;;;;;10.49;93.84;100288.47;5026209;28;20056;-75
2021/11/03 10:59:02;;;;;;;24.80;18.95;;;;;;;10.89;96.66;100307.16;5013689;28;20101;-75
2021/11/03 11:01:38;;;;;;;20.08;14.98;;;;;;;11.76;90.57;100284.72;5011990;28;20034;-75
2021/11/03 11:04:15;;;;;;;21.30;17.83;;;;;;;11.87;88.44;100285.66;5014599;28;20030;-75
2021/11/03 11:06:54;;;;;;;23.88;17.40;;;;;;;11.92;88.34;100277.75;5010709;28;20386;-77
2021/11/03 11:09:32;;;;;;;22.25;15.80;;;;;;;12.28;86.56;100274.31;5015944;28;20022;-75
2021/11/03 11:12:04;;;;;;;21.15;15.70;;;;;;;12.24;88.43;100280.47;5004332;28;21673;-76